createdAt,value
2023-05-06T00:01:37.481Z,78.90
2023-05-06T00:04:00.741Z,79.42
2023-05-06T00:06:23.857Z,78.79
2023-05-06T00:08:46.839Z,79.20
2023-05-06T00:11:09.496Z,79.65
2023-05-06T00:13:32.261Z,79.76
2023-05-06T00:15:55.000Z,79.03
2023-05-06T00:18:25.748Z,78.88
2023-05-06T00:20:49.189Z,78.79
2023-05-06T00:23:11.900Z,79.00
2023-05-06T00:25:34.472Z,78.75
2023-05-06T00:27:57.697Z,78.80
2023-05-06T00:30:20.613Z,78.38
2023-05-06T00:32:43.491Z,79.31
2023-05-06T00:35:07.156Z,79.42
2023-05-06T00:37:30.030Z,79.44
2023-05-06T00:39:53.008Z,79.44
2023-05-06T00:42:16.093Z,79.15
2023-05-06T00:44:39.074Z,78.95
2023-05-06T00:47:01.899Z,78.71
2023-05-06T00:49:24.997Z,78.72
2023-05-06T00:51:48.164Z,78.89
2023-05-06T00:54:10.928Z,78.86
2023-05-06T00:56:33.716Z,78.49
2023-05-06T00:58:57.746Z,78.35
2023-05-06T01:01:22.933Z,78.76
2023-05-06T01:03:47.201Z,79.17
2023-05-06T01:06:18.796Z,79.37
2023-05-06T01:08:52.198Z,79.47
2023-05-06T01:11:26.519Z,79.46
2023-05-06T01:13:57.004Z,79.75
2023-05-06T01:16:23.386Z,79.69
2023-05-06T01:18:48.950Z,79.87
2023-05-06T01:21:12.923Z,79.54
2023-05-06T01:23:55.734Z,79.43
2023-05-06T01:26:18.392Z,79.30
2023-05-06T01:28:41.071Z,79.43
2023-05-06T01:31:12.018Z,80.08
2023-05-06T01:33:40.084Z,79.60
2023-05-06T01:36:28.616Z,79.51
2023-05-06T01:38:57.876Z,79.54
2023-05-06T01:41:23.023Z,79.58
2023-05-06T01:43:49.082Z,79.70
2023-05-06T01:46:15.957Z,79.63
2023-05-06T01:48:39.867Z,80.31
2023-05-06T01:51:03.434Z,80.22
2023-05-06T01:53:26.793Z,79.87
2023-05-06T01:55:49.963Z,79.83
2023-05-06T01:58:13.032Z,79.96
2023-05-06T02:00:38.524Z,80.36
2023-05-06T02:03:01.199Z,80.47
2023-05-06T02:05:24.006Z,80.79
2023-05-06T02:07:51.474Z,80.43
2023-05-06T02:10:14.785Z,80.63
2023-05-06T02:12:43.140Z,80.30
2023-05-06T02:15:06.370Z,80.16
2023-05-06T02:17:29.206Z,80.56
2023-05-06T02:19:52.570Z,80.58
2023-05-06T02:22:15.490Z,80.39
2023-05-06T02:24:38.144Z,80.56
2023-05-06T02:27:02.030Z,80.65
2023-05-06T02:29:25.515Z,81.28
2023-05-06T02:31:48.125Z,81.18
2023-05-06T02:34:12.160Z,81.12
2023-05-06T02:36:34.881Z,80.92
2023-05-06T02:38:57.601Z,80.58
2023-05-06T02:41:20.703Z,81.29
2023-05-06T02:43:43.430Z,80.81
2023-05-06T02:46:06.220Z,81.10
2023-05-06T02:48:29.228Z,81.14
2023-05-06T02:50:52.932Z,81.68
2023-05-06T02:53:15.696Z,81.27
2023-05-06T02:55:38.275Z,80.68
2023-05-06T02:58:00.889Z,80.18
2023-05-06T03:00:24.123Z,80.01
2023-05-06T03:02:47.430Z,80.00
2023-05-06T03:05:10.341Z,79.87
2023-05-06T03:07:35.921Z,80.16
2023-05-06T03:09:59.218Z,80.17
2023-05-06T03:12:22.318Z,80.05
2023-05-06T03:14:45.566Z,79.57
2023-05-06T03:17:08.174Z,79.62
2023-05-06T03:19:32.729Z,79.17
2023-05-06T03:21:55.678Z,79.21
2023-05-06T03:24:19.198Z,79.10
2023-05-06T03:26:42.098Z,78.91
2023-05-06T03:29:07.264Z,79.05
2023-05-06T03:31:30.799Z,79.33
2023-05-06T03:33:55.248Z,79.11
2023-05-06T03:36:18.174Z,78.52
2023-05-06T03:38:43.452Z,78.34
2023-05-06T03:41:06.140Z,78.63
2023-05-06T03:43:28.843Z,78.52
2023-05-06T03:45:55.864Z,78.48
2023-05-06T03:48:19.510Z,78.72
2023-05-06T03:50:42.519Z,78.15
2023-05-06T03:53:05.362Z,78.03
2023-05-06T03:55:30.023Z,77.77
2023-05-06T03:57:53.331Z,77.65
2023-05-06T04:00:17.560Z,77.59
2023-05-06T04:02:42.831Z,77.53
2023-05-06T04:05:09.152Z,77.53
2023-05-06T04:07:31.892Z,78.01
2023-05-06T04:09:54.647Z,78.45
2023-05-06T04:12:17.858Z,77.76
2023-05-06T04:14:41.763Z,77.56
2023-05-06T04:17:05.597Z,78.33
2023-05-06T04:19:28.284Z,77.53
2023-05-06T04:21:51.002Z,78.07
2023-05-06T04:24:17.585Z,77.14
2023-05-06T04:26:40.604Z,77.32
2023-05-06T04:29:04.151Z,77.11
2023-05-06T04:31:29.536Z,76.82
2023-05-06T04:33:57.267Z,76.73
2023-05-06T04:36:21.988Z,77.27
2023-05-06T04:39:08.338Z,77.84
2023-05-06T04:41:31.688Z,77.46
2023-05-06T04:43:54.753Z,77.10
2023-05-06T04:46:19.328Z,77.48
2023-05-06T04:48:42.311Z,77.25
2023-05-06T04:51:07.974Z,76.88
2023-05-06T04:53:32.213Z,76.50
2023-05-06T04:55:56.056Z,76.65
2023-05-06T04:58:19.669Z,76.18
2023-05-06T05:00:43.601Z,76.27
2023-05-06T05:03:06.666Z,75.79
2023-05-06T05:05:31.541Z,75.40
2023-05-06T05:07:55.905Z,74.78
2023-05-06T05:10:20.526Z,74.49
2023-05-06T05:12:46.283Z,74.79
2023-05-06T05:15:09.671Z,74.37
2023-05-06T05:17:34.349Z,73.52
2023-05-06T05:19:57.597Z,73.40
2023-05-06T05:22:20.544Z,72.51
2023-05-06T05:24:43.295Z,71.48
2023-05-06T05:27:07.625Z,71.05
2023-05-06T05:29:30.930Z,70.99
2023-05-06T05:31:55.640Z,70.47
2023-05-06T05:34:18.780Z,71.10
2023-05-06T05:36:41.914Z,71.53
2023-05-06T05:39:07.609Z,71.22
2023-05-06T05:41:34.332Z,69.85
2023-05-06T05:43:57.095Z,67.93
2023-05-06T05:46:20.873Z,67.16
2023-05-06T05:48:44.646Z,66.07
2023-05-06T05:51:07.388Z,64.76
2023-05-06T05:53:30.055Z,64.56
2023-05-06T05:55:52.711Z,64.19
2023-05-06T05:58:16.063Z,64.85
2023-05-06T06:00:40.114Z,64.62
2023-05-06T06:03:07.832Z,64.94
2023-05-06T06:05:30.749Z,66.09
2023-05-06T06:07:53.557Z,68.16
2023-05-06T06:10:17.251Z,68.38
2023-05-06T06:12:40.918Z,67.32
2023-05-06T06:15:04.750Z,67.86
2023-05-06T06:17:28.300Z,68.79
2023-05-06T06:19:57.220Z,68.59
2023-05-06T06:22:20.487Z,68.69
2023-05-06T06:24:43.675Z,68.29
2023-05-06T06:27:07.299Z,67.80
2023-05-06T06:29:30.148Z,67.21
2023-05-06T06:31:52.967Z,66.10
2023-05-06T06:34:15.775Z,67.14
2023-05-06T06:36:40.365Z,66.90
2023-05-06T06:39:03.299Z,66.87
2023-05-06T06:41:27.546Z,66.58
2023-05-06T06:43:50.720Z,65.42
2023-05-06T06:46:14.797Z,65.52
2023-05-06T06:48:37.454Z,64.48
2023-05-06T06:51:00.146Z,63.97
2023-05-06T06:53:22.779Z,64.43
2023-05-06T06:55:45.993Z,63.89
2023-05-06T06:58:08.663Z,64.98
2023-05-06T07:00:31.257Z,65.47
2023-05-06T07:02:54.443Z,64.68
2023-05-06T07:05:18.500Z,64.71
2023-05-06T07:07:41.192Z,64.07
2023-05-06T07:10:04.319Z,63.66
2023-05-06T07:12:27.048Z,63.45
2023-05-06T07:14:49.987Z,63.85
2023-05-06T07:17:12.729Z,63.07
2023-05-06T07:19:35.497Z,62.59
2023-05-06T07:21:58.337Z,63.24
2023-05-06T07:24:21.524Z,62.74
2023-05-06T07:26:44.413Z,63.44
2023-05-06T07:29:07.333Z,62.52
2023-05-06T07:31:33.028Z,62.48
2023-05-06T07:33:56.035Z,62.43
2023-05-06T07:36:18.936Z,62.13
2023-05-06T07:38:42.038Z,62.63
2023-05-06T07:41:04.831Z,62.01
2023-05-06T07:43:27.721Z,61.01
2023-05-06T07:45:50.849Z,60.16
2023-05-06T07:48:13.633Z,60.56
2023-05-06T07:50:36.397Z,61.06
2023-05-06T07:53:00.230Z,60.03
2023-05-06T07:55:22.864Z,59.50
2023-05-06T07:57:45.476Z,58.61
2023-05-06T08:00:10.229Z,58.13
2023-05-06T08:02:36.181Z,58.04
2023-05-06T08:04:59.013Z,59.38
2023-05-06T08:07:21.701Z,59.30
2023-05-06T08:09:44.271Z,57.61
2023-05-06T08:12:07.707Z,57.61
2023-05-06T08:14:30.426Z,59.25
2023-05-06T08:16:53.581Z,58.05
2023-05-06T08:19:16.168Z,58.50
2023-05-06T08:21:38.980Z,57.58
2023-05-06T08:24:01.787Z,57.06
2023-05-06T08:26:24.385Z,55.74
2023-05-06T08:28:47.163Z,54.38
2023-05-06T08:31:10.356Z,54.43
2023-05-06T08:33:33.259Z,56.32
2023-05-06T08:35:57.679Z,55.86
2023-05-06T08:38:20.751Z,55.61
2023-05-06T08:40:44.724Z,54.93
2023-05-06T08:43:13.296Z,53.73
2023-05-06T08:45:35.983Z,54.35
2023-05-06T08:47:58.638Z,54.36
2023-05-06T08:50:21.497Z,54.02
2023-05-06T08:52:45.041Z,52.66
2023-05-06T08:55:09.740Z,53.27
2023-05-06T08:57:33.738Z,54.73
2023-05-06T08:59:57.076Z,54.05
2023-05-06T09:02:20.486Z,53.71
2023-05-06T09:04:43.563Z,53.76
2023-05-06T09:07:47.554Z,52.41
2023-05-06T09:10:14.843Z,52.26
2023-05-06T09:12:38.879Z,52.65
2023-05-06T09:15:01.945Z,52.52
2023-05-06T09:17:26.719Z,52.00
2023-05-06T09:19:57.210Z,52.36
2023-05-06T09:22:26.835Z,50.03
2023-05-06T09:24:57.054Z,51.27
2023-05-06T09:27:21.680Z,49.90
2023-05-06T09:30:00.956Z,50.05
2023-05-06T09:32:23.864Z,49.81
2023-05-06T09:34:49.060Z,50.07
2023-05-06T09:37:12.544Z,48.32
2023-05-06T09:39:35.252Z,49.27
2023-05-06T09:41:57.913Z,48.89
2023-05-06T09:44:23.434Z,48.41
2023-05-06T09:46:46.257Z,48.83
2023-05-06T09:49:08.841Z,47.85
2023-05-06T09:51:32.599Z,47.75
2023-05-06T09:53:57.895Z,46.47
2023-05-06T09:56:21.510Z,45.81
2023-05-06T09:58:46.095Z,45.14
2023-05-06T10:01:09.528Z,43.33
2023-05-06T10:03:33.268Z,42.82
2023-05-06T10:05:59.274Z,43.48
2023-05-06T10:08:26.230Z,43.64
2023-05-06T10:10:50.266Z,42.73
2023-05-06T10:13:13.665Z,42.64
2023-05-06T10:15:38.592Z,41.97
2023-05-06T10:18:01.920Z,38.44
2023-05-06T10:20:26.495Z,37.20
2023-05-06T10:23:29.163Z,36.90
2023-05-06T10:25:56.457Z,35.65
2023-05-06T10:28:28.985Z,37.17
2023-05-06T10:30:56.004Z,38.54
2023-05-06T10:33:19.549Z,37.36
2023-05-06T10:35:42.555Z,36.33
2023-05-06T10:38:11.167Z,36.25
2023-05-06T10:40:34.078Z,37.68
2023-05-06T10:43:39.020Z,37.11
2023-05-06T10:46:13.071Z,36.45
2023-05-06T10:48:59.830Z,36.23
2023-05-06T10:51:24.222Z,36.71
2023-05-06T10:54:00.135Z,37.08
2023-05-06T10:56:22.927Z,37.60
2023-05-06T10:58:49.844Z,37.79
2023-05-06T11:01:14.546Z,39.52
2023-05-06T11:03:42.395Z,38.08
2023-05-06T11:06:05.682Z,37.57
2023-05-06T11:08:28.424Z,38.01
2023-05-06T11:10:51.750Z,38.63
2023-05-06T11:13:23.259Z,38.52
2023-05-06T11:15:46.481Z,38.81
2023-05-06T11:18:24.861Z,37.97
2023-05-06T11:20:50.519Z,37.45
2023-05-06T11:23:13.099Z,36.93
2023-05-06T11:25:40.974Z,36.39
2023-05-06T11:28:08.163Z,36.44
2023-05-06T11:30:31.129Z,37.14
2023-05-06T11:32:57.107Z,36.83
2023-05-06T11:35:21.678Z,37.38
2023-05-06T11:37:44.613Z,37.23
2023-05-06T11:40:15.380Z,37.01
2023-05-06T11:42:38.061Z,36.95
2023-05-06T11:45:02.159Z,36.60
2023-05-06T11:47:26.441Z,37.93
2023-05-06T11:49:53.854Z,38.23
2023-05-06T11:52:20.390Z,37.68
2023-05-06T11:54:43.026Z,37.53
2023-05-06T11:57:05.739Z,37.99
2023-05-06T11:59:29.788Z,38.49
2023-05-06T12:01:52.431Z,38.60
2023-05-06T12:04:15.235Z,39.62
2023-05-06T12:06:38.706Z,39.03
2023-05-06T12:09:05.372Z,39.61
2023-05-06T12:11:28.203Z,39.63
2023-05-06T12:13:51.697Z,39.29
2023-05-06T12:16:15.822Z,39.40
2023-05-06T12:18:38.746Z,39.20
2023-05-06T12:21:06.014Z,40.05
2023-05-06T12:23:28.685Z,40.84
2023-05-06T12:26:09.355Z,39.76
2023-05-06T12:28:33.636Z,41.21
2023-05-06T12:30:56.286Z,41.89
2023-05-06T12:33:19.085Z,41.76
2023-05-06T12:35:41.751Z,41.25
2023-05-06T12:38:13.052Z,41.39
2023-05-06T12:40:36.102Z,41.68
2023-05-06T12:42:58.937Z,41.72
2023-05-06T12:45:22.181Z,41.90
2023-05-06T12:47:54.990Z,42.75
2023-05-06T12:50:37.818Z,42.49
2023-05-06T12:53:00.775Z,41.96
2023-05-06T12:55:25.793Z,42.38
2023-05-06T12:57:49.308Z,42.58
2023-05-06T13:00:12.848Z,42.34
2023-05-06T13:02:35.838Z,42.52
2023-05-06T13:04:58.840Z,41.98
2023-05-06T13:07:22.377Z,40.89
2023-05-06T13:09:45.156Z,40.62
2023-05-06T13:12:08.058Z,40.64
2023-05-06T13:14:30.844Z,41.11
2023-05-06T13:16:53.765Z,40.13
2023-05-06T13:21:42.710Z,39.48
2023-05-06T13:24:06.514Z,39.12
2023-05-06T13:26:29.485Z,38.49
2023-05-06T13:28:52.364Z,38.24
2023-05-06T13:31:15.209Z,38.49
2023-05-06T13:33:38.023Z,39.16
2023-05-06T13:36:01.536Z,39.52
2023-05-06T13:38:25.273Z,39.52
2023-05-06T13:40:51.513Z,40.35
2023-05-06T13:43:15.556Z,41.63
2023-05-06T13:45:38.330Z,41.71
2023-05-06T13:48:01.043Z,40.96
2023-05-06T13:50:23.908Z,43.74
2023-05-06T13:52:46.586Z,45.11
2023-05-06T13:55:10.094Z,46.29
2023-05-06T13:57:33.174Z,47.58
2023-05-06T13:59:55.880Z,47.94
2023-05-06T14:02:18.591Z,48.67
2023-05-06T14:04:41.281Z,49.74
2023-05-06T14:07:03.922Z,50.43
2023-05-06T14:09:26.908Z,50.19
2023-05-06T14:11:49.582Z,49.90
2023-05-06T14:14:12.163Z,50.47
2023-05-06T14:16:34.817Z,51.53
2023-05-06T14:18:57.634Z,52.26
2023-05-06T14:21:20.306Z,53.40
2023-05-06T14:23:43.235Z,53.45
2023-05-06T14:26:05.991Z,54.40
2023-05-06T14:28:29.056Z,54.54
2023-05-06T14:30:51.782Z,54.82
2023-05-06T14:33:14.650Z,55.19
2023-05-06T14:35:42.096Z,56.05
2023-05-06T14:38:04.727Z,56.42
2023-05-06T14:40:27.737Z,56.37
2023-05-06T14:42:50.504Z,56.50
2023-05-06T14:45:13.849Z,56.69
2023-05-06T14:47:36.641Z,57.32
2023-05-06T14:49:59.338Z,57.20
2023-05-06T14:52:22.410Z,57.49
2023-05-06T14:54:44.964Z,58.10
2023-05-06T14:57:11.415Z,57.94
2023-05-06T14:59:34.226Z,58.86
2023-05-06T15:01:57.058Z,58.58
2023-05-06T15:04:19.681Z,58.45
2023-05-06T15:06:42.347Z,58.00
2023-05-06T15:09:05.086Z,58.23
2023-05-06T15:11:27.916Z,58.12
2023-05-06T15:13:50.585Z,58.36
2023-05-06T15:16:13.205Z,58.81
2023-05-06T15:18:38.077Z,59.21
2023-05-06T15:21:01.655Z,59.64
2023-05-06T15:23:24.477Z,60.97
2023-05-06T15:25:47.299Z,61.44
2023-05-06T15:28:10.029Z,61.91
2023-05-06T15:30:32.775Z,63.37
2023-05-06T15:32:55.471Z,64.46
2023-05-06T15:35:18.115Z,65.72
2023-05-06T15:37:40.902Z,66.38
2023-05-06T15:40:05.615Z,66.36
2023-05-06T15:42:29.832Z,66.79
2023-05-06T15:44:53.398Z,66.84
2023-05-06T15:47:16.299Z,66.30
2023-05-06T15:52:05.007Z,65.35
2023-05-06T15:54:28.004Z,65.85
2023-05-06T15:56:50.803Z,64.79
2023-05-06T15:59:13.587Z,65.53
2023-05-06T16:02:18.988Z,64.51
2023-05-06T16:04:19.565Z,63.69
2023-05-06T16:06:42.222Z,62.40
2023-05-06T16:09:04.878Z,62.63
2023-05-06T16:11:27.827Z,63.16
2023-05-06T16:13:50.558Z,63.68
2023-05-06T16:16:13.198Z,62.94
2023-05-06T16:18:36.010Z,62.97
2023-05-06T16:20:58.642Z,62.08
2023-05-06T16:23:22.542Z,62.42
2023-05-06T16:25:45.171Z,62.08
2023-05-06T16:28:09.015Z,62.45
2023-05-06T16:30:31.698Z,63.26
2023-05-06T16:32:54.645Z,63.38
2023-05-06T16:35:22.062Z,63.26
2023-05-06T16:37:44.809Z,63.71
2023-05-06T16:40:08.754Z,63.56
2023-05-06T16:42:31.979Z,64.34
2023-05-06T16:44:54.591Z,64.30
2023-05-06T16:47:17.523Z,64.45
2023-05-06T16:49:40.279Z,64.30
2023-05-06T16:52:03.800Z,64.28
2023-05-06T16:54:27.230Z,64.25
2023-05-06T16:56:52.402Z,64.67
2023-05-06T16:59:15.452Z,64.59
2023-05-06T17:01:38.245Z,64.65
2023-05-06T17:04:01.053Z,64.94
2023-05-06T17:06:28.065Z,65.15
2023-05-06T17:08:51.189Z,65.46
2023-05-06T17:11:14.083Z,65.10
2023-05-06T17:13:36.848Z,65.03
2023-05-06T17:16:00.007Z,64.47
2023-05-06T17:18:23.474Z,64.29
2023-05-06T17:20:55.047Z,64.28
2023-05-06T17:23:19.731Z,63.41
2023-05-06T17:25:42.360Z,63.01
2023-05-06T17:28:05.100Z,62.52
2023-05-06T17:30:27.791Z,62.90
2023-05-06T17:32:50.765Z,62.87
2023-05-06T17:35:13.679Z,62.72
2023-05-06T17:37:36.799Z,62.29
2023-05-06T17:39:59.622Z,62.09
2023-05-06T17:42:22.878Z,62.65
2023-05-06T17:44:45.994Z,62.84
2023-05-06T17:47:09.689Z,63.75
2023-05-06T17:49:34.398Z,64.04
2023-05-06T17:51:58.708Z,64.46
2023-05-06T17:54:23.290Z,64.55
2023-05-06T17:56:50.756Z,64.69
2023-05-06T17:59:13.380Z,64.78
2023-05-06T18:01:36.233Z,65.03
2023-05-06T18:03:59.259Z,65.02
2023-05-06T18:06:22.349Z,65.19
2023-05-06T18:08:45.558Z,65.12
2023-05-06T18:11:08.249Z,65.30
2023-05-06T18:13:35.220Z,65.42
2023-05-06T18:15:57.947Z,65.37
2023-05-06T18:18:20.863Z,65.89
2023-05-06T18:20:43.822Z,67.38
2023-05-06T18:23:07.695Z,67.25
2023-05-06T18:25:30.384Z,67.35
2023-05-06T18:27:53.078Z,67.55
2023-05-06T18:30:18.906Z,67.66
2023-05-06T18:32:41.895Z,67.60
2023-05-06T18:35:04.975Z,67.72
2023-05-06T18:37:29.157Z,67.84
2023-05-06T18:39:52.171Z,67.84
2023-05-06T18:42:15.167Z,68.19
2023-05-06T18:44:38.138Z,68.47
2023-05-06T18:47:01.686Z,68.60
2023-05-06T18:49:24.440Z,68.56
2023-05-06T18:51:47.283Z,68.92
2023-05-06T18:54:10.406Z,69.41
2023-05-06T18:56:33.335Z,69.86
2023-05-06T18:58:56.556Z,70.18
2023-05-06T19:01:19.170Z,71.13
2023-05-06T19:03:41.937Z,73.88
2023-05-06T19:06:08.171Z,74.95
2023-05-06T19:08:31.772Z,74.94
2023-05-06T19:10:54.599Z,74.24
2023-05-06T19:13:17.506Z,74.14
2023-05-06T19:15:40.340Z,74.12
2023-05-06T19:18:04.028Z,73.65
2023-05-06T19:20:26.667Z,73.31
2023-05-06T19:22:49.592Z,73.12
2023-05-06T19:25:12.514Z,72.87
2023-05-06T19:27:35.275Z,73.06
2023-05-06T19:29:57.990Z,72.92
2023-05-06T19:32:21.156Z,72.73
2023-05-06T19:34:43.694Z,72.71
2023-05-06T19:37:06.315Z,72.54
2023-05-06T19:39:28.891Z,72.17
2023-05-06T19:41:53.819Z,72.17
2023-05-06T19:44:16.407Z,72.14
2023-05-06T19:46:39.161Z,72.13
2023-05-06T19:49:43.164Z,72.14
2023-05-06T19:52:06.076Z,72.33
2023-05-06T19:54:28.837Z,72.47
2023-05-06T19:56:51.594Z,72.15
2023-05-06T19:59:14.799Z,72.35
2023-05-06T20:01:38.037Z,72.45
2023-05-06T20:04:00.979Z,72.20
2023-05-06T20:06:24.482Z,72.14
2023-05-06T20:08:47.131Z,72.52
2023-05-06T20:11:09.859Z,72.71
2023-05-06T20:13:32.890Z,72.82
2023-05-06T20:15:57.453Z,73.12
2023-05-06T20:18:20.596Z,73.27
2023-05-06T20:20:43.599Z,73.05
2023-05-06T20:23:06.289Z,73.23
2023-05-06T20:25:29.875Z,73.66
2023-05-06T20:27:52.592Z,73.73
2023-05-06T20:30:15.775Z,74.02
2023-05-06T20:32:40.372Z,74.91
2023-05-06T20:35:04.498Z,75.44
2023-05-06T20:37:27.943Z,75.28
2023-05-06T20:39:50.680Z,75.02
2023-05-06T20:42:13.381Z,75.48
2023-05-06T20:44:36.075Z,75.94
2023-05-06T20:46:58.697Z,76.12
2023-05-06T20:49:21.831Z,76.55
2023-05-06T20:51:44.679Z,76.82
2023-05-06T20:54:08.799Z,76.75
2023-05-06T20:56:31.380Z,76.85
2023-05-06T20:58:55.841Z,76.34
2023-05-06T21:01:19.539Z,75.82
2023-05-06T21:03:43.250Z,75.73
2023-05-06T21:06:05.964Z,75.54
2023-05-06T21:08:28.730Z,76.13
2023-05-06T21:10:51.823Z,76.38
2023-05-06T21:13:14.635Z,76.34
2023-05-06T21:15:38.217Z,76.34
2023-05-06T21:18:01.534Z,76.31
2023-05-06T21:20:24.217Z,75.98
2023-05-06T21:22:48.113Z,75.71
2023-05-06T21:25:13.269Z,75.63
2023-05-06T21:27:36.255Z,75.51
2023-05-06T21:29:58.899Z,75.94
2023-05-06T21:32:21.708Z,75.96
2023-05-06T21:34:44.417Z,75.72
2023-05-06T21:37:07.144Z,76.12
2023-05-06T21:39:29.885Z,76.20
2023-05-06T21:41:52.878Z,76.15
2023-05-06T21:44:16.147Z,76.03
2023-05-06T21:46:38.995Z,76.37
2023-05-06T21:49:01.921Z,76.33
2023-05-06T21:51:27.973Z,76.40
2023-05-06T21:53:51.211Z,76.61
2023-05-06T21:56:13.848Z,76.19
2023-05-06T21:58:36.384Z,75.59
2023-05-06T22:00:59.120Z,74.86
2023-05-06T22:03:21.822Z,75.42
2023-05-06T22:05:44.550Z,75.19
2023-05-06T22:08:07.229Z,76.10
2023-05-06T22:10:29.943Z,76.99
2023-05-06T22:12:52.564Z,78.36
2023-05-06T22:15:15.510Z,78.79
2023-05-06T22:17:38.826Z,77.24
2023-05-06T22:20:05.976Z,78.69
2023-05-06T22:22:29.694Z,80.04
2023-05-06T22:24:52.467Z,80.57
2023-05-06T22:27:15.101Z,82.04
2023-05-06T22:29:38.054Z,82.85
2023-05-06T22:32:01.377Z,84.69
2023-05-06T22:34:24.185Z,84.23
2023-05-06T22:36:46.756Z,84.79
2023-05-06T22:39:09.460Z,84.83
2023-05-06T22:41:32.122Z,84.81
2023-05-06T22:43:54.773Z,84.92
2023-05-06T22:46:17.393Z,84.29
2023-05-06T22:48:40.589Z,83.94
2023-05-06T22:51:04.620Z,84.24
2023-05-06T22:53:27.552Z,84.75
2023-05-06T22:55:50.568Z,85.02
2023-05-06T22:58:13.440Z,84.40
2023-05-06T23:00:36.595Z,84.65
2023-05-06T23:02:59.975Z,84.95
2023-05-06T23:05:22.553Z,84.25
2023-05-06T23:07:45.994Z,85.12
2023-05-06T23:10:09.150Z,84.77
2023-05-06T23:12:35.274Z,85.19
2023-05-06T23:14:58.011Z,84.81
2023-05-06T23:17:20.816Z,85.95
2023-05-06T23:19:44.229Z,86.01
2023-05-06T23:22:08.582Z,85.90
2023-05-06T23:24:31.390Z,85.42
2023-05-06T23:26:54.600Z,85.56
2023-05-06T23:29:17.388Z,85.37
2023-05-06T23:31:40.082Z,85.59
2023-05-06T23:34:02.946Z,85.93
2023-05-06T23:36:27.409Z,85.47
2023-05-06T23:38:49.971Z,86.11
2023-05-06T23:41:13.021Z,86.20
2023-05-06T23:43:35.876Z,86.73
2023-05-06T23:45:58.504Z,86.62
2023-05-06T23:48:21.394Z,86.93
2023-05-06T23:50:44.678Z,87.03
2023-05-06T23:53:07.329Z,86.95
2023-05-06T23:55:30.859Z,86.82
2023-05-06T23:57:54.000Z,86.70
